createdAt,value
2022-09-28T02:44:41.238Z,0.77
2022-09-28T04:56:33.600Z,1.10
2022-09-28T04:59:23.271Z,1.23
2022-09-28T05:01:57.976Z,0.70
2022-09-28T05:04:29.480Z,0.60
2022-09-28T05:09:40.630Z,0.60
2022-09-28T05:12:11.352Z,0.73
2022-09-28T05:14:42.871Z,1.20
2022-09-28T05:20:10.811Z,1.00
2022-09-28T05:22:51.656Z,1.70
2022-09-28T05:25:20.822Z,2.70
2022-09-28T05:28:22.934Z,1.65
2022-09-28T05:30:51.974Z,2.45
2022-09-28T05:33:36.686Z,2.83
2022-09-28T05:36:42.729Z,2.63
2022-09-28T05:39:17.991Z,1.85
2022-09-28T05:42:18.318Z,1.63
2022-09-28T05:45:02.235Z,1.30
2022-09-28T05:47:49.694Z,1.80
2022-09-28T05:50:23.130Z,2.70
2022-09-28T05:56:38.421Z,2.60
2022-09-28T05:59:22.000Z,2.65
2022-09-28T06:01:53.395Z,2.60
2022-09-28T06:04:24.301Z,2.47
2022-09-28T06:06:54.760Z,2.65
2022-09-28T06:09:28.436Z,2.58
2022-09-28T06:12:04.963Z,2.17
2022-09-28T06:14:38.046Z,3.40
2022-09-28T06:17:12.496Z,2.00
2022-09-28T06:19:47.293Z,2.75
2022-09-28T06:22:23.053Z,2.50
2022-09-28T06:24:54.025Z,1.90
2022-09-28T06:27:39.082Z,1.95
2022-09-28T06:30:19.918Z,2.08
2022-09-28T06:33:02.087Z,3.35
2022-09-28T06:48:07.656Z,2.35
2022-09-28T06:54:06.923Z,2.85
2022-09-28T07:09:32.926Z,2.10
2022-09-28T07:15:35.536Z,2.40
2022-09-28T08:17:05.039Z,1.50
2022-09-28T08:27:17.953Z,2.08
2022-09-28T11:04:59.253Z,1.55
2022-09-28T11:07:35.287Z,1.35
2022-09-28T11:15:48.863Z,1.20
2022-09-28T11:24:44.346Z,1.02
2022-09-28T11:37:12.952Z,1.20
2022-09-28T12:50:54.533Z,1.20
2022-09-28T12:53:51.203Z,1.13
2022-09-28T12:56:40.385Z,0.80
2022-09-28T13:02:51.394Z,0.95
2022-09-28T13:09:09.092Z,1.15
2022-09-28T13:11:59.222Z,0.90
2022-09-28T13:14:52.133Z,1.02
2022-09-28T13:17:47.566Z,0.95
2022-09-28T13:20:17.268Z,1.08
2022-09-28T13:23:04.161Z,0.90
2022-09-28T13:25:35.564Z,0.90
2022-09-28T13:54:01.347Z,0.70
2022-09-28T13:56:43.855Z,0.60
2022-09-28T13:59:18.640Z,0.68
2022-09-28T14:01:53.173Z,0.77
2022-09-28T14:04:23.446Z,0.70
2022-09-28T14:07:18.045Z,0.60
2022-09-28T14:10:05.993Z,0.70
2022-09-28T14:12:38.007Z,0.68
2022-09-28T20:42:47.496Z,2.67
2022-09-28T20:45:45.394Z,2.75
2022-09-28T20:48:20.925Z,3.10
2022-09-28T20:51:12.862Z,2.60
2022-09-28T20:53:47.250Z,2.45
2022-09-28T20:59:30.634Z,2.25
2022-09-28T21:12:15.298Z,1.95
2022-09-28T21:14:54.392Z,3.03
2022-09-28T21:17:24.270Z,2.45
2022-09-28T21:20:08.849Z,2.97
2022-09-28T21:22:39.383Z,3.47
2022-09-28T21:25:30.495Z,4.43
2022-09-28T21:28:21.586Z,4.63
2022-09-28T21:46:00.641Z,2.63
2022-09-28T21:51:57.265Z,2.42
2022-09-28T21:54:47.417Z,2.92
2022-09-28T22:03:22.351Z,2.90
2022-09-28T22:06:05.356Z,2.70
2022-09-28T22:08:40.358Z,2.97
2022-09-28T22:11:28.791Z,2.70
2022-09-28T22:14:11.255Z,2.60
2022-09-28T22:16:51.200Z,2.90
2022-09-28T22:19:19.149Z,2.60
2022-09-28T22:21:55.624Z,2.75
2022-09-28T22:24:34.451Z,2.85
2022-09-28T22:27:11.401Z,2.47
2022-09-28T22:29:40.799Z,2.30
2022-09-28T22:32:27.739Z,2.50
2022-09-28T22:35:02.102Z,2.40
2022-09-28T22:37:31.367Z,2.40
2022-09-28T22:40:03.386Z,2.67
2022-09-28T22:42:35.578Z,2.55
2022-09-28T22:45:03.815Z,2.60
2022-09-28T22:47:32.344Z,2.75
2022-09-28T22:50:00.509Z,2.10
2022-09-28T22:52:29.687Z,2.45
2022-09-28T22:54:59.658Z,2.63
2022-09-28T22:57:33.261Z,2.58
2022-09-28T23:00:01.631Z,2.47
2022-09-28T23:08:38.748Z,2.75
2022-09-28T23:11:17.369Z,2.72
2022-09-28T23:13:49.533Z,3.15
2022-09-28T23:16:45.079Z,2.75
2022-09-28T23:19:13.034Z,2.85
2022-09-28T23:22:20.415Z,2.25
2022-09-28T23:24:49.373Z,2.80
2022-09-28T23:43:12.929Z,1.88
2022-09-28T23:45:40.698Z,3.13
2022-09-28T23:48:33.514Z,2.00
2022-09-28T23:51:09.770Z,1.92
2022-09-28T23:53:41.914Z,1.67
2022-09-28T23:56:13.908Z,1.80
2022-09-28T23:58:49.382Z,1.60
